Time;durP1;ratioP1;P1;durP2;ratioP2;P2;SDS_P1;SDS_P2;PMS_P1;PMS_P2;Temp;Humidity;BMP_temperature;BMP_pressure;BME280_temperature;BME280_humidity;BME280_pressure;Samples;Min_cycle;Max_cycle;Signal;HPM_P1;HPM_P2
2024/04/14 00:02:52;;;;;;;7.63;3.00;;;;;;;;;;10987353;26;20017;-60
2024/04/14 00:07:53;;;;;;;3.58;2.53;;;;;;;;;;11030884;26;20026;-60
2024/04/14 00:12:55;;;;;;;4.43;2.42;;;;;;;;;;11024558;26;20369;-59
2024/04/14 00:17:56;;;;;;;3.20;2.67;;;;;;;;;;11025575;26;20005;-59
2024/04/14 00:22:59;;;;;;;5.38;2.50;;;;;;;;;;11021720;26;20010;-59
2024/04/14 00:28:00;;;;;;;7.18;2.78;;;;;;;;;;10998301;26;20002;-61
2024/04/14 00:33:01;;;;;;;3.35;2.50;;;;;;;;;;11014216;26;20033;-60
2024/04/14 00:38:02;;;;;;;6.63;2.78;;;;;;;;;;11015677;26;20383;-60
2024/04/14 00:43:03;;;;;;;4.80;2.50;;;;;;;;;;10988955;26;20017;-60
2024/04/14 00:48:05;;;;;;;2.85;2.40;;;;;;;;;;11011082;26;20094;-61
2024/04/14 00:53:08;;;;;;;4.63;2.58;;;;;;;;;;10960587;26;20066;-60
2024/04/14 00:58:10;;;;;;;5.28;2.40;;;;;;;;;;11013223;26;20066;-59
2024/04/14 01:03:12;;;;;;;4.72;2.00;;;;;;;;;;11003439;26;20014;-59
2024/04/14 01:08:13;;;;;;;7.90;2.50;;;;;;;;;;10999392;26;20071;-59
2024/04/14 01:13:14;;;;;;;6.00;2.72;;;;;;;;;;11002163;26;20093;-58
2024/04/14 01:18:16;;;;;;;6.15;2.75;;;;;;;;;;11042025;26;20029;-59
2024/04/14 01:23:18;;;;;;;4.32;2.50;;;;;;;;;;11005884;26;20460;-61
2024/04/14 01:28:19;;;;;;;4.53;2.80;;;;;;;;;;11024512;26;20086;-60
2024/04/14 01:33:23;;;;;;;6.05;2.80;;;;;;;;;;11007600;26;20001;-59
2024/04/14 01:38:24;;;;;;;2.78;2.40;;;;;;;;;;11019503;26;20009;-59
2024/04/14 01:43:27;;;;;;;2.72;2.33;;;;;;;;;;11025112;26;20380;-59
2024/04/14 01:48:28;;;;;;;2.70;2.45;;;;;;;;;;11016378;26;20012;-59
2024/04/14 01:53:29;;;;;;;3.53;2.60;;;;;;;;;;11027560;26;20026;-59
2024/04/14 01:58:30;;;;;;;2.25;2.05;;;;;;;;;;11013692;26;20078;-59
2024/04/14 02:03:33;;;;;;;2.53;2.33;;;;;;;;;;11006269;26;20021;-59
2024/04/14 02:08:34;;;;;;;5.18;2.30;;;;;;;;;;11008101;26;20005;-59
2024/04/14 02:13:35;;;;;;;4.88;2.30;;;;;;;;;;11010914;26;20409;-60
2024/04/14 02:18:37;;;;;;;4.45;2.10;;;;;;;;;;11023205;26;20001;-59
2024/04/14 02:23:38;;;;;;;2.45;2.10;;;;;;;;;;11022893;26;20013;-60
2024/04/14 02:28:39;;;;;;;2.85;2.40;;;;;;;;;;11010833;26;20429;-59
2024/04/14 02:33:41;;;;;;;2.63;2.03;;;;;;;;;;11018565;26;19997;-61
2024/04/14 02:38:42;;;;;;;4.78;2.58;;;;;;;;;;11015616;26;20011;-61
2024/04/14 02:43:44;;;;;;;2.85;2.42;;;;;;;;;;11010107;26;20032;-59
2024/04/14 02:48:49;;;;;;;2.45;2.20;;;;;;;;;;11023363;26;20010;-59
2024/04/14 02:53:50;;;;;;;5.00;2.72;;;;;;;;;;10975298;26;20319;-59
2024/04/14 02:58:51;;;;;;;2.78;2.38;;;;;;;;;;11019859;26;20111;-62
2024/04/14 03:03:53;;;;;;;3.75;2.50;;;;;;;;;;11015539;26;20427;-59
2024/04/14 03:08:54;;;;;;;3.33;2.50;;;;;;;;;;11000868;26;20333;-60
2024/04/14 03:13:55;;;;;;;8.90;2.65;;;;;;;;;;11032550;26;20080;-61
2024/04/14 03:18:56;;;;;;;2.65;2.33;;;;;;;;;;11010151;26;20573;-60
2024/04/14 03:23:57;;;;;;;2.67;2.25;;;;;;;;;;11021797;26;20053;-59
2024/04/14 03:28:58;;;;;;;6.95;2.40;;;;;;;;;;11020580;26;20107;-61
2024/04/14 03:33:59;;;;;;;2.40;2.13;;;;;;;;;;11011334;26;20001;-58
2024/04/14 03:39:01;;;;;;;2.75;2.22;;;;;;;;;;11015639;26;20433;-59
2024/04/14 03:44:02;;;;;;;3.35;2.72;;;;;;;;;;11027749;26;20041;-58
2024/04/14 03:49:04;;;;;;;3.22;2.65;;;;;;;;;;11048354;26;20005;-60
2024/04/14 03:54:05;;;;;;;2.60;2.30;;;;;;;;;;11022200;26;19997;-61
2024/04/14 03:59:06;;;;;;;5.28;2.25;;;;;;;;;;11021124;26;20311;-59
2024/04/14 04:04:08;;;;;;;5.68;2.63;;;;;;;;;;11013473;26;20393;-58
2024/04/14 04:09:09;;;;;;;4.55;2.63;;;;;;;;;;11042922;26;20031;-58
2024/04/14 04:14:10;;;;;;;3.22;2.72;;;;;;;;;;11028051;26;20520;-58
2024/04/14 04:19:12;;;;;;;2.97;2.60;;;;;;;;;;11028926;26;20111;-58
2024/04/14 04:24:13;;;;;;;3.33;2.50;;;;;;;;;;11007057;26;20340;-59
2024/04/14 04:29:14;;;;;;;2.72;2.47;;;;;;;;;;11034884;26;20131;-59
2024/04/14 04:34:15;;;;;;;2.40;2.20;;;;;;;;;;10997418;26;20005;-60
2024/04/14 04:39:19;;;;;;;2.28;2.10;;;;;;;;;;11004485;26;20116;-61
2024/04/14 04:44:20;;;;;;;4.35;2.17;;;;;;;;;;11013932;26;20092;-61
2024/04/14 04:49:21;;;;;;;3.00;2.60;;;;;;;;;;11016153;26;20020;-61
2024/04/14 04:54:22;;;;;;;2.85;2.47;;;;;;;;;;11016695;26;20483;-61
2024/04/14 04:59:23;;;;;;;4.07;2.90;;;;;;;;;;11011978;26;20075;-61
2024/04/14 05:04:24;;;;;;;2.42;2.22;;;;;;;;;;11007107;26;20025;-62
2024/04/14 05:09:26;;;;;;;2.63;2.35;;;;;;;;;;11035543;26;20009;-61
2024/04/14 05:14:27;;;;;;;2.67;2.47;;;;;;;;;;11028740;26;20084;-62
2024/04/14 05:19:28;;;;;;;3.15;2.58;;;;;;;;;;11047228;26;20345;-60
2024/04/14 05:24:29;;;;;;;2.55;2.35;;;;;;;;;;11000426;26;20029;-61
2024/04/14 05:29:31;;;;;;;2.88;2.63;;;;;;;;;;11020667;26;20038;-61
2024/04/14 05:34:33;;;;;;;7.80;2.35;;;;;;;;;;11033647;26;20001;-60
2024/04/14 05:39:35;;;;;;;3.22;2.67;;;;;;;;;;10998509;26;20009;-62
2024/04/14 05:44:36;;;;;;;3.60;2.40;;;;;;;;;;11018438;26;20654;-61
2024/04/14 05:49:37;;;;;;;2.42;2.22;;;;;;;;;;11015322;26;20071;-61
2024/04/14 05:54:39;;;;;;;2.95;2.35;;;;;;;;;;11025473;26;20049;-61
2024/04/14 05:59:40;;;;;;;2.55;2.33;;;;;;;;;;11030552;26;20096;-62
2024/04/14 06:04:41;;;;;;;3.33;2.60;;;;;;;;;;11013220;26;20037;-63
2024/04/14 06:09:42;;;;;;;4.00;2.60;;;;;;;;;;11016459;26;20645;-62
2024/04/14 06:14:43;;;;;;;4.93;2.53;;;;;;;;;;11001097;26;20535;-63
2024/04/14 06:19:44;;;;;;;5.15;2.58;;;;;;;;;;10950334;26;20084;-63
2024/04/14 06:24:45;;;;;;;3.17;2.45;;;;;;;;;;11017452;26;20053;-62
2024/04/14 06:29:46;;;;;;;3.58;2.35;;;;;;;;;;11008978;26;20659;-62
2024/04/14 06:34:49;;;;;;;3.00;2.25;;;;;;;;;;10977883;26;20071;-62
2024/04/14 06:39:51;;;;;;;2.50;2.30;;;;;;;;;;10998711;26;20585;-59
2024/04/14 06:44:52;;;;;;;2.85;2.33;;;;;;;;;;10981303;27;20010;-62
2024/04/14 06:49:53;;;;;;;2.67;2.47;;;;;;;;;;11014717;26;20440;-62
2024/04/14 06:54:54;;;;;;;2.58;2.38;;;;;;;;;;11017580;26;20433;-62
2024/04/14 06:59:56;;;;;;;2.72;2.40;;;;;;;;;;11027843;26;20021;-61
2024/04/14 07:04:57;;;;;;;2.53;2.20;;;;;;;;;;11003143;26;20100;-61
2024/04/14 07:09:58;;;;;;;2.95;2.50;;;;;;;;;;11012439;26;20029;-62
2024/04/14 07:14:59;;;;;;;2.65;2.30;;;;;;;;;;11036746;26;20025;-63
2024/04/14 07:20:00;;;;;;;2.50;2.30;;;;;;;;;;10997088;26;20438;-62
2024/04/14 07:25:01;;;;;;;2.47;2.28;;;;;;;;;;11003401;26;20022;-63
2024/04/14 07:30:04;;;;;;;2.40;2.20;;;;;;;;;;10990491;26;20012;-63
2024/04/14 07:35:05;;;;;;;6.57;3.10;;;;;;;;;;10976661;26;20021;-62
2024/04/14 07:40:07;;;;;;;9.02;6.68;;;;;;;;;;10974110;26;20342;-62
2024/04/14 07:45:10;;;;;;;14.68;9.00;;;;;;;;;;10976900;26;20037;-63
2024/04/14 07:50:11;;;;;;;14.50;10.30;;;;;;;;;;10964654;26;20001;-62
2024/04/14 07:55:13;;;;;;;19.70;11.20;;;;;;;;;;10996838;26;20015;-61
2024/04/14 08:00:14;;;;;;;16.15;9.80;;;;;;;;;;11004082;26;20001;-61
2024/04/14 08:05:15;;;;;;;18.25;8.60;;;;;;;;;;11014038;26;20001;-63
2024/04/14 08:10:16;;;;;;;15.20;9.85;;;;;;;;;;11001622;26;20398;-60
2024/04/14 08:15:17;;;;;;;15.68;9.10;;;;;;;;;;11001596;26;20007;-60
2024/04/14 08:20:18;;;;;;;16.90;7.88;;;;;;;;;;10986554;26;20104;-61
2024/04/14 08:25:19;;;;;;;11.60;6.93;;;;;;;;;;10975630;26;20083;-60
2024/04/14 08:30:21;;;;;;;14.75;7.25;;;;;;;;;;10980171;26;19998;-61
2024/04/14 08:35:22;;;;;;;14.25;7.45;;;;;;;;;;10992507;26;20016;-61
2024/04/14 08:40:23;;;;;;;16.52;7.43;;;;;;;;;;11000235;26;20250;-59
2024/04/14 08:45:26;;;;;;;15.43;7.10;;;;;;;;;;10992907;26;19997;-58
2024/04/14 08:50:27;;;;;;;11.65;6.82;;;;;;;;;;11005435;26;20237;-59
2024/04/14 08:55:28;;;;;;;8.90;6.13;;;;;;;;;;10970116;26;20039;-60
2024/04/14 09:00:32;;;;;;;16.50;6.10;;;;;;;;;;10992517;26;20005;-60
2024/04/14 09:05:35;;;;;;;12.32;5.93;;;;;;;;;;11045989;26;20004;-59
2024/04/14 09:10:36;;;;;;;7.22;5.22;;;;;;;;;;11046632;26;20070;-60
2024/04/14 09:15:41;;;;;;;5.88;5.07;;;;;;;;;;11026962;26;19997;-59
2024/04/14 09:20:42;;;;;;;9.55;5.78;;;;;;;;;;11026998;26;20518;-60
2024/04/14 09:25:43;;;;;;;11.50;5.55;;;;;;;;;;11011302;26;20049;-60
2024/04/14 09:30:45;;;;;;;8.35;5.15;;;;;;;;;;11006820;26;20083;-59
2024/04/14 09:35:49;;;;;;;9.02;5.80;;;;;;;;;;11039985;26;20032;-61
2024/04/14 09:40:53;;;;;;;7.90;5.50;;;;;;;;;;11023666;26;20001;-59
2024/04/14 09:45:55;;;;;;;8.40;5.32;;;;;;;;;;11047461;26;20016;-59
2024/04/14 09:50:58;;;;;;;6.63;5.35;;;;;;;;;;11016136;26;20136;-60
2024/04/14 09:55:59;;;;;;;10.07;5.55;;;;;;;;;;11010534;26;20418;-60
2024/04/14 10:01:06;;;;;;;6.65;4.97;;;;;;;;;;11024729;26;20080;-60
2024/04/14 10:06:09;;;;;;;9.50;4.93;;;;;;;;;;11021879;26;20036;-59
2024/04/14 10:11:11;;;;;;;7.13;5.13;;;;;;;;;;11024254;26;20544;-59
2024/04/14 10:16:12;;;;;;;5.97;5.20;;;;;;;;;;11047325;26;20033;-59
2024/04/14 10:21:19;;;;;;;8.90;5.15;;;;;;;;;;11046283;26;20001;-59
2024/04/14 10:26:21;;;;;;;7.90;5.20;;;;;;;;;;11005050;26;20082;-60
2024/04/14 10:31:34;;;;;;;10.57;5.53;;;;;;;;;;11025027;26;20021;-60
2024/04/14 10:36:37;;;;;;;8.60;5.70;;;;;;;;;;10962578;26;20188;-60
2024/04/14 10:41:38;;;;;;;8.45;5.72;;;;;;;;;;11002617;26;20017;-60
2024/04/14 10:46:39;;;;;;;6.75;5.60;;;;;;;;;;11004033;26;19997;-59
2024/04/14 10:51:41;;;;;;;7.75;5.85;;;;;;;;;;11016988;26;20295;-60
2024/04/14 10:56:42;;;;;;;7.18;5.78;;;;;;;;;;11014031;26;20334;-59
2024/04/14 11:01:44;;;;;;;7.50;6.22;;;;;;;;;;11024537;26;20076;-60
2024/04/14 11:06:46;;;;;;;7.63;5.72;;;;;;;;;;11013809;26;20460;-60
2024/04/14 11:11:47;;;;;;;6.50;5.35;;;;;;;;;;11044065;26;20020;-60
2024/04/14 11:16:51;;;;;;;7.82;6.13;;;;;;;;;;11041945;26;20587;-60
2024/04/14 11:21:52;;;;;;;6.82;5.75;;;;;;;;;;11011967;26;20037;-60
2024/04/14 11:26:53;;;;;;;7.15;5.63;;;;;;;;;;11029119;26;20348;-60
2024/04/14 11:31:55;;;;;;;6.63;5.82;;;;;;;;;;11025593;26;20029;-60
2024/04/14 11:36:57;;;;;;;7.07;5.75;;;;;;;;;;11027391;26;20037;-60
2024/04/14 11:41:58;;;;;;;12.10;6.70;;;;;;;;;;11028180;26;20002;-60
2024/04/14 11:47:00;;;;;;;7.38;6.55;;;;;;;;;;11049650;26;20105;-59
2024/04/14 11:52:01;;;;;;;12.43;6.70;;;;;;;;;;11048679;26;20012;-60
2024/04/14 11:57:03;;;;;;;7.53;6.45;;;;;;;;;;11048281;26;20021;-59
2024/04/14 12:02:04;;;;;;;8.32;6.07;;;;;;;;;;11051379;26;20036;-59
2024/04/14 12:07:05;;;;;;;8.95;6.50;;;;;;;;;;11033338;26;20100;-60
2024/04/14 12:12:07;;;;;;;8.73;6.60;;;;;;;;;;11045025;26;20001;-59
2024/04/14 12:17:08;;;;;;;9.85;6.68;;;;;;;;;;11050655;26;20078;-60
2024/04/14 12:22:09;;;;;;;10.20;6.28;;;;;;;;;;11048714;26;20041;-60
2024/04/14 12:27:10;;;;;;;8.55;6.95;;;;;;;;;;11049606;26;20440;-59
2024/04/14 12:32:11;;;;;;;8.02;6.55;;;;;;;;;;11050802;26;20005;-60
2024/04/14 12:37:13;;;;;;;11.98;6.80;;;;;;;;;;11049300;26;20339;-60
2024/04/14 12:42:14;;;;;;;11.05;6.85;;;;;;;;;;11004457;26;20123;-60
2024/04/14 12:47:15;;;;;;;8.38;6.55;;;;;;;;;;11015812;26;19997;-59
2024/04/14 12:52:16;;;;;;;10.35;6.70;;;;;;;;;;10998788;26;20037;-59
2024/04/14 12:57:19;;;;;;;11.75;6.65;;;;;;;;;;11044050;26;20103;-59
2024/04/14 13:02:20;;;;;;;9.25;6.70;;;;;;;;;;11027747;26;20025;-59
2024/04/14 13:07:21;;;;;;;9.18;6.78;;;;;;;;;;11048699;26;20068;-59
2024/04/14 13:12:22;;;;;;;7.70;6.70;;;;;;;;;;11047595;26;20016;-60
2024/04/14 13:17:24;;;;;;;9.70;6.97;;;;;;;;;;11007714;26;20013;-60
2024/04/14 13:22:25;;;;;;;9.23;6.80;;;;;;;;;;11042330;26;19997;-60
2024/04/14 13:27:26;;;;;;;8.68;6.90;;;;;;;;;;11047206;26;20044;-60
2024/04/14 13:32:27;;;;;;;8.05;6.68;;;;;;;;;;11048521;26;20440;-60
2024/04/14 13:37:28;;;;;;;11.30;6.53;;;;;;;;;;11047710;26;20328;-59
2024/04/14 13:42:29;;;;;;;9.13;6.88;;;;;;;;;;11034422;26;20313;-59
2024/04/14 13:47:31;;;;;;;10.27;6.45;;;;;;;;;;11016314;26;20062;-60
2024/04/14 13:52:32;;;;;;;8.00;6.82;;;;;;;;;;11037465;26;20013;-60
2024/04/14 13:57:33;;;;;;;7.95;5.90;;;;;;;;;;11042713;26;20017;-59
2024/04/14 14:02:34;;;;;;;6.63;5.93;;;;;;;;;;11025455;26;20099;-60
2024/04/14 14:07:35;;;;;;;8.65;6.57;;;;;;;;;;11047686;26;20353;-59
2024/04/14 14:12:38;;;;;;;7.97;6.63;;;;;;;;;;11091654;21;20036;-59
2024/04/14 14:17:40;;;;;;;7.70;6.85;;;;;;;;;;11139570;26;20004;-60
2024/04/14 14:22:42;;;;;;;8.27;6.38;;;;;;;;;;11137112;26;20069;-58
2024/04/14 14:27:45;;;;;;;7.38;6.55;;;;;;;;;;11138698;26;19992;-56
2024/04/14 14:32:48;;;;;;;7.45;6.30;;;;;;;;;;11137605;26;20000;-59
2024/04/14 14:37:50;;;;;;;10.00;5.95;;;;;;;;;;11138309;26;19999;-59
2024/04/14 14:42:53;;;;;;;7.82;6.05;;;;;;;;;;11107374;26;20024;-58
2024/04/14 14:47:56;;;;;;;9.48;6.00;;;;;;;;;;11137528;26;20028;-61
2024/04/14 14:52:58;;;;;;;6.43;5.82;;;;;;;;;;11136000;26;20008;-60
2024/04/14 14:58:01;;;;;;;10.75;6.15;;;;;;;;;;11137727;26;19993;-59
2024/04/14 15:03:03;;;;;;;10.88;5.68;;;;;;;;;;11106756;26;20000;-60
2024/04/14 15:08:05;;;;;;;8.48;6.05;;;;;;;;;;11134708;26;20069;-58
2024/04/14 15:13:09;;;;;;;6.45;5.82;;;;;;;;;;11135625;26;20073;-59
2024/04/14 15:18:14;;;;;;;10.65;5.38;;;;;;;;;;11136766;26;20007;-58
2024/04/14 15:23:16;;;;;;;8.73;5.75;;;;;;;;;;11136564;26;19996;-62
2024/04/14 15:28:20;;;;;;;9.13;5.60;;;;;;;;;;11136956;26;20000;-59
2024/04/14 15:33:22;;;;;;;7.47;5.00;;;;;;;;;;11134761;26;20008;-59
2024/04/14 15:38:28;;;;;;;6.68;5.55;;;;;;;;;;11134843;26;20429;-61
2024/04/14 15:43:30;;;;;;;7.57;6.30;;;;;;;;;;11136221;26;20008;-63
2024/04/14 15:48:33;;;;;;;6.68;5.43;;;;;;;;;;11135040;26;20003;-63
2024/04/14 15:53:35;;;;;;;6.43;5.28;;;;;;;;;;11135862;26;20031;-63
2024/04/14 15:58:37;;;;;;;6.82;5.78;;;;;;;;;;11105219;26;19993;-63
2024/04/14 16:03:38;;;;;;;6.03;5.43;;;;;;;;;;11093316;26;20004;-61
2024/04/14 16:08:39;;;;;;;6.95;5.32;;;;;;;;;;11104811;26;20025;-63
2024/04/14 16:13:40;;;;;;;7.28;5.05;;;;;;;;;;11111521;26;20094;-59
2024/04/14 16:18:43;;;;;;;5.78;5.18;;;;;;;;;;11076588;26;20261;-58
2024/04/14 16:23:46;;;;;;;7.75;5.35;;;;;;;;;;11100221;26;19997;-62
2024/04/14 16:28:47;;;;;;;7.38;5.63;;;;;;;;;;11112436;26;20054;-63
2024/04/14 16:33:48;;;;;;;9.77;5.65;;;;;;;;;;11099982;26;20350;-64
2024/04/14 16:38:49;;;;;;;7.22;5.70;;;;;;;;;;11113503;26;20000;-64
2024/04/14 16:43:50;;;;;;;9.48;6.10;;;;;;;;;;11116494;26;20366;-64
2024/04/14 16:48:51;;;;;;;7.85;5.35;;;;;;;;;;11123105;26;20122;-64
2024/04/14 16:53:53;;;;;;;6.40;4.90;;;;;;;;;;11125030;26;20032;-64
2024/04/14 16:58:54;;;;;;;7.20;5.20;;;;;;;;;;11120127;26;20028;-61
2024/04/14 17:03:57;;;;;;;8.27;5.32;;;;;;;;;;11123568;26;19996;-64
2024/04/14 17:08:58;;;;;;;5.93;5.25;;;;;;;;;;11108721;26;20000;-65
2024/04/14 17:13:59;;;;;;;12.10;5.38;;;;;;;;;;11106431;26;20012;-59
2024/04/14 17:19:00;;;;;;;13.98;4.82;;;;;;;;;;11109572;26;20242;-63
2024/04/14 17:24:02;;;;;;;14.15;5.38;;;;;;;;;;11102377;26;20059;-62
2024/04/14 17:29:03;;;;;;;9.43;5.47;;;;;;;;;;11094982;26;20473;-64
2024/04/14 17:34:04;;;;;;;15.55;5.25;;;;;;;;;;11114061;26;20086;-63
2024/04/14 17:39:05;;;;;;;23.90;5.90;;;;;;;;;;11117352;26;20371;-65
2024/04/14 17:44:06;;;;;;;9.75;5.45;;;;;;;;;;11122593;26;20036;-66
2024/04/14 17:49:07;;;;;;;13.35;5.72;;;;;;;;;;11124363;26;20068;-65
2024/04/14 17:54:12;;;;;;;9.23;4.95;;;;;;;;;;11121630;26;20044;-65
2024/04/14 17:59:13;;;;;;;10.57;5.40;;;;;;;;;;11106213;26;20007;-65
2024/04/14 18:04:14;;;;;;;7.60;5.18;;;;;;;;;;11110179;26;20479;-59
2024/04/14 18:09:15;;;;;;;16.05;5.50;;;;;;;;;;11107473;26;20035;-59
2024/04/14 18:14:17;;;;;;;8.40;5.10;;;;;;;;;;11094483;26;20032;-59
2024/04/14 18:19:18;;;;;;;8.65;4.90;;;;;;;;;;11106595;26;20000;-63
2024/04/14 18:24:19;;;;;;;11.38;4.72;;;;;;;;;;11108193;26;20056;-63
2024/04/14 18:29:20;;;;;;;5.80;4.68;;;;;;;;;;11118483;26;20028;-63
2024/04/14 18:34:21;;;;;;;5.72;4.28;;;;;;;;;;11120308;26;20024;-63
2024/04/14 18:39:22;;;;;;;11.20;4.80;;;;;;;;;;11109538;26;20420;-62
2024/04/14 18:44:23;;;;;;;7.78;5.47;;;;;;;;;;11111792;26;20090;-62
2024/04/14 18:49:24;;;;;;;12.23;4.55;;;;;;;;;;11100824;26;20033;-64
2024/04/14 18:54:26;;;;;;;7.05;4.40;;;;;;;;;;11110979;26;20029;-62
2024/04/14 18:59:27;;;;;;;6.00;4.90;;;;;;;;;;11106430;26;20403;-60
2024/04/14 19:04:28;;;;;;;9.40;4.57;;;;;;;;;;11092851;26;20029;-54
2024/04/14 19:09:29;;;;;;;10.38;4.85;;;;;;;;;;11109249;26;20032;-55
2024/04/14 19:14:30;;;;;;;7.10;5.00;;;;;;;;;;11104530;26;20099;-62
2024/04/14 19:19:31;;;;;;;9.32;4.93;;;;;;;;;;11119072;26;20044;-59
2024/04/14 19:24:32;;;;;;;11.75;4.80;;;;;;;;;;11110963;26;20032;-62
2024/04/14 19:29:33;;;;;;;10.43;4.43;;;;;;;;;;11093982;26;20000;-63
2024/04/14 19:34:34;;;;;;;7.50;4.32;;;;;;;;;;11099986;26;20028;-62
2024/04/14 19:39:38;;;;;;;10.27;5.20;;;;;;;;;;11097315;26;20001;-62
2024/04/14 19:44:39;;;;;;;6.03;4.20;;;;;;;;;;11120309;26;20071;-62
2024/04/14 19:49:40;;;;;;;10.52;4.68;;;;;;;;;;11092134;26;20373;-62
2024/04/14 19:54:41;;;;;;;9.50;4.50;;;;;;;;;;11085802;26;20041;-63
2024/04/14 19:59:42;;;;;;;9.38;5.20;;;;;;;;;;11110595;26;20000;-63
2024/04/14 20:04:46;;;;;;;27.13;6.85;;;;;;;;;;11121562;26;20123;-63
2024/04/14 20:09:47;;;;;;;14.73;5.72;;;;;;;;;;11103646;26;20004;-62
2024/04/14 20:14:48;;;;;;;16.33;5.82;;;;;;;;;;11118954;26;20028;-63
2024/04/14 20:19:49;;;;;;;13.82;5.53;;;;;;;;;;11112223;26;20000;-63
2024/04/14 20:24:51;;;;;;;11.40;5.13;;;;;;;;;;11089625;26;20036;-62
2024/04/14 20:29:52;;;;;;;8.23;4.55;;;;;;;;;;11116375;26;20205;-63
2024/04/14 20:34:53;;;;;;;15.02;4.55;;;;;;;;;;11102298;26;20036;-62
2024/04/14 20:39:54;;;;;;;11.63;5.20;;;;;;;;;;11077802;26;20172;-61
2024/04/14 20:44:55;;;;;;;9.13;4.70;;;;;;;;;;11084523;26;20644;-64
2024/04/14 20:49:56;;;;;;;16.60;4.88;;;;;;;;;;11105804;26;19996;-63
2024/04/14 20:54:58;;;;;;;14.10;4.90;;;;;;;;;;11120166;26;20047;-64
2024/04/14 20:59:59;;;;;;;9.25;5.00;;;;;;;;;;11117888;26;20012;-63
2024/04/14 21:05:00;;;;;;;8.77;4.80;;;;;;;;;;11121260;26;20001;-64
2024/04/14 21:10:02;;;;;;;16.33;5.07;;;;;;;;;;11113428;26;20644;-64
2024/04/14 21:15:05;;;;;;;7.20;3.95;;;;;;;;;;11126482;26;20099;-62
2024/04/14 21:20:07;;;;;;;10.45;4.68;;;;;;;;;;11127689;26;20001;-64
2024/04/14 21:25:08;;;;;;;8.07;4.28;;;;;;;;;;11114864;26;20040;-65
2024/04/14 21:30:09;;;;;;;7.40;4.22;;;;;;;;;;11118844;26;20008;-62
2024/04/14 21:35:11;;;;;;;31.23;4.20;;;;;;;;;;11116938;26;20099;-63
2024/04/14 21:40:12;;;;;;;11.30;4.20;;;;;;;;;;11127199;26;20096;-64
2024/04/14 21:45:13;;;;;;;9.32;4.57;;;;;;;;;;11112900;26;20114;-64
2024/04/14 21:50:14;;;;;;;7.85;4.15;;;;;;;;;;11093513;26;20036;-64
2024/04/14 21:55:16;;;;;;;15.25;4.97;;;;;;;;;;11100335;26;20044;-62
2024/04/14 22:00:17;;;;;;;7.22;3.63;;;;;;;;;;11105611;26;20000;-63
2024/04/14 22:05:18;;;;;;;8.68;3.90;;;;;;;;;;11111037;26;20007;-63
2024/04/14 22:10:19;;;;;;;9.63;3.70;;;;;;;;;;11119231;26;20016;-64
2024/04/14 22:15:20;;;;;;;13.23;4.22;;;;;;;;;;11090223;26;20344;-63
2024/04/14 22:20:21;;;;;;;10.70;3.90;;;;;;;;;;11069473;26;20001;-64
2024/04/14 22:25:23;;;;;;;5.88;3.63;;;;;;;;;;11086141;26;20069;-62
2024/04/14 22:30:25;;;;;;;9.93;3.60;;;;;;;;;;11125003;26;20024;-64
2024/04/14 22:35:26;;;;;;;6.65;3.95;;;;;;;;;;11121700;26;20354;-63
2024/04/14 22:40:28;;;;;;;5.05;3.60;;;;;;;;;;11087450;26;20118;-63
2024/04/14 22:45:29;;;;;;;5.72;3.63;;;;;;;;;;11094201;26;20032;-63
2024/04/14 22:50:30;;;;;;;10.98;4.07;;;;;;;;;;11082934;26;20142;-63
2024/04/14 22:55:31;;;;;;;7.13;4.10;;;;;;;;;;11110467;26;20104;-63
2024/04/14 23:00:33;;;;;;;4.38;3.65;;;;;;;;;;11109666;26;20760;-63
2024/04/14 23:05:34;;;;;;;4.95;3.97;;;;;;;;;;11106389;26;20024;-64
2024/04/14 23:10:35;;;;;;;9.35;4.28;;;;;;;;;;11088400;26;20427;-64
2024/04/14 23:15:36;;;;;;;7.68;3.67;;;;;;;;;;11059657;26;20025;-64
2024/04/14 23:20:37;;;;;;;3.63;3.33;;;;;;;;;;11118309;26;20486;-65
2024/04/14 23:25:38;;;;;;;6.25;3.70;;;;;;;;;;11124454;26;20024;-63
2024/04/14 23:30:40;;;;;;;8.02;4.10;;;;;;;;;;11130203;26;20331;-62
2024/04/14 23:35:41;;;;;;;6.63;3.58;;;;;;;;;;11130836;26;20082;-63
2024/04/14 23:40:42;;;;;;;8.90;3.65;;;;;;;;;;11130713;26;20479;-64
2024/04/14 23:45:43;;;;;;;7.40;4.05;;;;;;;;;;11129969;26;20028;-64
2024/04/14 23:50:44;;;;;;;10.00;3.92;;;;;;;;;;11130665;26;20034;-64
2024/04/14 23:55:46;;;;;;;7.55;3.70;;;;;;;;;;11113022;26;20431;-63
